Terminal Aerodrome Forecast
Issued by NWS Tulsa, OK

Home | Current Version | Previous Version | Text Only | Print | Product List | Glossary Off
Versions: 1 2 3 4 5 6 7 8 9 10 11 12 13 14

903
FTUS44 KTSA 081740
TAFTUL
TAF
KTUL 081740Z 0818/0918 33024G35KT P6SM FEW060
     FM090100 31011KT P6SM SKC
     FM091500 32014G23KT P6SM SKC=

USA.gov is the U.S. government's official web portal to all federal, state and local government web resources and services.